Time;durP1;ratioP1;P1;durP2;ratioP2;P2;SDS_P1;SDS_P2;PMS_P1;PMS_P2;Temp;Humidity;BMP_temperature;BMP_pressure;BME280_temperature;BME280_humidity;BME280_pressure;Samples;Min_cycle;Max_cycle;Signal;HPM_P1;HPM_P2
2021/03/27 00:01:08;;;;;;;39.73;31.13;;;;;;;5.97;57.56;100892.06;114114;1199;103120;-83
2021/03/27 00:03:55;;;;;;;43.25;31.35;;;;;;;6.00;57.64;100897.38;114026;1202;103911;-85
2021/03/27 00:06:56;;;;;;;40.40;31.20;;;;;;;6.01;57.58;100898.24;113911;1203;103162;-82
2021/03/27 00:09:37;;;;;;;40.70;30.30;;;;;;;6.00;57.50;100897.38;114145;1202;103193;-85
2021/03/27 00:12:59;;;;;;;46.65;31.10;;;;;;;5.95;57.78;100893.81;114266;1200;103213;-82
2021/03/27 00:15:54;;;;;;;40.00;26.55;;;;;;;5.89;57.81;100885.89;114347;1199;103334;-84
2021/03/27 00:18:46;;;;;;;39.85;29.50;;;;;;;5.85;57.61;100898.22;114347;1199;103200;-90
2021/03/27 00:21:39;;;;;;;38.30;31.10;;;;;;;5.85;58.03;100889.39;114575;1200;103159;-81
2021/03/27 00:24:12;;;;;;;43.45;25.25;;;;;;;5.79;58.04;100890.27;114359;1199;103091;-84
2021/03/27 00:26:55;;;;;;;37.47;25.27;;;;;;;5.76;58.56;100890.27;114149;1198;103188;-82
2021/03/27 00:29:34;;;;;;;35.23;24.58;;;;;;;5.75;58.51;100880.58;114371;1198;103188;-82
2021/03/27 00:32:07;;;;;;;37.75;27.15;;;;;;;5.72;58.64;100877.94;114279;1199;103961;-80
2021/03/27 00:34:40;;;;;;;30.18;21.93;;;;;;;5.69;58.89;100873.53;114638;1196;103203;-81
2021/03/27 00:37:12;;;;;;;34.70;25.85;;;;;;;5.67;58.72;100862.06;114769;1196;104017;-81
2021/03/27 00:39:48;;;;;;;36.87;29.00;;;;;;;5.68;58.40;100873.53;114675;1196;103251;-82
2021/03/27 00:42:28;;;;;;;35.28;25.70;;;;;;;5.72;58.73;100867.37;114482;1196;103086;-82
2021/03/27 00:45:22;;;;;;;37.43;25.93;;;;;;;5.77;58.17;100867.36;114547;1196;103136;-81
2021/03/27 00:47:54;;;;;;;38.20;29.10;;;;;;;5.79;58.31;100871.77;114544;1196;103233;-83
2021/03/27 00:50:46;;;;;;;47.45;31.68;;;;;;;5.85;58.00;100874.42;114597;1196;103940;-83
2021/03/27 00:53:36;;;;;;;43.40;29.40;;;;;;;5.88;57.85;100862.97;114599;1196;103162;-80
2021/03/27 00:56:13;;;;;;;43.37;30.33;;;;;;;5.90;57.97;100863.84;114288;1196;103871;-82
2021/03/27 00:58:53;;;;;;;42.20;29.00;;;;;;;5.90;58.18;100861.20;114054;1196;103126;-82
2021/03/27 01:01:22;;;;;;;34.37;25.90;;;;;;;5.86;57.93;100854.15;113882;1196;103150;-82
2021/03/27 01:03:56;;;;;;;34.10;26.30;;;;;;;5.83;58.56;100855.02;114105;1196;103178;-84
2021/03/27 01:06:32;;;;;;;37.47;25.40;;;;;;;5.81;58.73;100847.97;113953;1196;103469;-83
2021/03/27 01:09:01;;;;;;;36.73;25.40;;;;;;;5.77;59.07;100844.47;114069;1196;103107;-83
2021/03/27 01:11:32;;;;;;;34.68;24.70;;;;;;;5.75;59.85;100840.06;114062;1196;103139;-83
2021/03/27 01:14:03;;;;;;;36.87;24.50;;;;;;;5.72;60.24;100838.30;114660;1196;103223;-81
2021/03/27 01:16:49;;;;;;;35.40;25.95;;;;;;;5.76;60.08;100840.06;114626;1196;102996;-91
2021/03/27 01:19:20;;;;;;;38.87;28.00;;;;;;;5.81;60.74;100855.91;115061;1196;103211;-80
2021/03/27 01:21:48;;;;;;;32.03;24.20;;;;;;;5.83;61.14;100848.88;114800;1195;103159;-81
2021/03/27 01:24:17;;;;;;;36.38;25.25;;;;;;;5.83;61.20;100847.09;114777;1195;103805;-82
2021/03/27 01:26:49;;;;;;;41.03;28.43;;;;;;;5.83;61.50;100839.17;114563;1196;103175;-80
2021/03/27 01:29:25;;;;;;;29.70;24.97;;;;;;;5.84;60.94;100840.94;113950;1196;103290;-84
2021/03/27 01:32:01;;;;;;;36.60;26.17;;;;;;;5.88;61.14;100840.92;113775;1196;103136;-82
2021/03/27 01:34:41;;;;;;;33.25;26.70;;;;;;;5.95;61.14;100848.00;113721;1196;103376;-80
2021/03/27 01:37:07;;;;;;;34.57;23.33;;;;;;;6.03;60.24;100846.26;113663;1196;103130;-82
2021/03/27 01:39:57;;;;;;;30.70;23.23;;;;;;;6.08;60.99;100840.95;113689;1196;103270;-81
2021/03/27 01:42:29;;;;;;;28.45;21.33;;;;;;;6.12;60.67;100833.03;113995;1196;103207;-81
2021/03/27 01:45:27;;;;;;;33.15;23.15;;;;;;;6.11;60.88;100831.27;114200;1196;103191;-80
2021/03/27 01:48:17;;;;;;;33.73;23.30;;;;;;;6.08;61.36;100811.86;113874;1199;103264;-81
2021/03/27 01:51:08;;;;;;;24.47;19.63;;;;;;;6.03;62.21;100806.59;113733;1202;103443;-81
2021/03/27 01:53:54;;;;;;;28.30;19.93;;;;;;;6.00;63.29;100812.77;114125;1200;103296;-81
2021/03/27 01:56:59;;;;;;;23.20;17.67;;;;;;;5.99;63.74;100803.06;114101;1199;104729;-80
2021/03/27 01:59:32;;;;;;;33.38;20.90;;;;;;;5.94;63.87;100804.80;114061;1196;103124;-80
2021/03/27 02:02:05;;;;;;;27.48;18.45;;;;;;;5.91;64.43;100796.88;114152;1196;103133;-85
2021/03/27 02:04:39;;;;;;;30.30;21.80;;;;;;;5.92;64.27;100800.39;113879;1196;103513;-81
2021/03/27 02:07:19;;;;;;;32.43;21.47;;;;;;;5.91;63.99;100803.94;113957;1196;103336;-80
2021/03/27 02:10:01;;;;;;;40.08;23.50;;;;;;;5.89;64.09;100800.41;114222;1196;103161;-83
2021/03/27 02:13:04;;;;;;;37.33;24.20;;;;;;;5.92;64.12;100801.30;114019;1199;103287;-81
2021/03/27 02:16:08;;;;;;;31.05;25.18;;;;;;;5.93;63.88;100804.80;113821;1200;103345;-82
2021/03/27 02:19:02;;;;;;;38.73;25.83;;;;;;;5.96;63.47;100808.34;113908;1199;103264;-81
2021/03/27 02:21:35;;;;;;;32.15;23.10;;;;;;;5.99;63.76;100818.93;113964;1199;103446;-82
2021/03/27 02:24:40;;;;;;;33.88;24.45;;;;;;;5.98;63.74;100819.80;113732;1199;103223;-84
2021/03/27 02:27:22;;;;;;;32.15;22.53;;;;;;;5.99;63.81;100807.48;113660;1198;103296;-83
2021/03/27 02:30:01;;;;;;;32.40;24.20;;;;;;;5.97;63.34;100802.17;113775;1200;103303;-81
2021/03/27 02:32:49;;;;;;;32.97;23.20;;;;;;;5.95;63.49;100806.56;113980;1196;103168;-83
2021/03/27 02:35:42;;;;;;;40.70;28.63;;;;;;;5.92;64.15;100809.22;114150;1196;103148;-83
2021/03/27 02:38:15;;;;;;;35.63;25.30;;;;;;;5.91;63.59;100799.52;114147;1195;103277;-83
2021/03/27 02:40:56;;;;;;;35.13;22.40;;;;;;;5.86;63.52;100802.19;114129;1196;103340;-84
2021/03/27 02:43:43;;;;;;;35.55;22.18;;;;;;;5.86;64.03;100790.71;114133;1196;103286;-82
2021/03/27 02:46:26;;;;;;;33.33;22.80;;;;;;;5.84;63.86;100787.20;114274;1196;103212;-83
2021/03/27 02:49:12;;;;;;;34.73;23.53;;;;;;;5.82;63.92;100788.95;114241;1196;103342;-82
2021/03/27 02:51:52;;;;;;;29.70;22.33;;;;;;;5.80;64.08;100791.60;114277;1196;103258;-84
2021/03/27 02:54:45;;;;;;;37.60;24.87;;;;;;;5.78;63.94;100792.48;114176;1196;103286;-80
2021/03/27 02:57:37;;;;;;;32.43;22.47;;;;;;;5.74;63.94;100786.31;114233;1196;103126;-83
2021/03/27 03:00:12;;;;;;;37.97;24.83;;;;;;;5.78;64.22;100779.27;114241;1196;103114;-81
2021/03/27 03:03:03;;;;;;;42.90;28.07;;;;;;;5.76;63.99;100788.94;114571;1196;103111;-82
2021/03/27 03:05:39;;;;;;;42.58;30.75;;;;;;;5.74;64.12;100785.44;114527;1196;103098;-81
2021/03/27 03:08:32;;;;;;;39.70;30.67;;;;;;;5.74;64.25;100782.80;114573;1196;103188;-82
2021/03/27 03:11:12;;;;;;;38.15;29.50;;;;;;;5.71;64.29;100785.45;114529;1196;103159;-81
2021/03/27 03:14:03;;;;;;;39.00;30.20;;;;;;;5.66;64.54;100778.41;114197;1198;103342;-82
2021/03/27 03:16:38;;;;;;;37.45;27.80;;;;;;;5.64;64.83;100774.00;114303;1200;103838;-84
2021/03/27 03:19:26;;;;;;;43.78;30.68;;;;;;;5.61;64.58;100773.98;114541;1196;103677;-82
2021/03/27 03:22:28;;;;;;;48.33;31.17;;;;;;;5.58;64.71;100777.50;114691;1195;103094;-81
2021/03/27 03:25:02;;;;;;;42.80;31.50;;;;;;;5.55;64.81;100766.08;114375;1196;103928;-82
2021/03/27 03:27:55;;;;;;;46.80;36.20;;;;;;;5.49;64.49;100769.56;114598;1196;103231;-83
2021/03/27 03:30:34;;;;;;;40.00;28.80;;;;;;;5.48;64.71;100768.70;114571;1196;103056;-81
2021/03/27 03:33:22;;;;;;;46.38;31.10;;;;;;;5.46;64.96;100765.16;114506;1196;103222;-82
2021/03/27 03:36:15;;;;;;;49.10;33.90;;;;;;;5.45;65.06;100759.88;114560;1196;103881;-84
2021/03/27 03:38:49;;;;;;;45.50;32.98;;;;;;;5.40;65.22;100757.25;114564;1196;103584;-84
2021/03/27 03:41:31;;;;;;;52.83;36.57;;;;;;;5.36;65.25;100755.49;114543;1195;103162;-82
2021/03/27 03:44:36;;;;;;;37.50;27.00;;;;;;;5.35;65.39;100753.72;114596;1196;103131;-82
2021/03/27 03:47:17;;;;;;;41.90;29.90;;;;;;;5.37;65.52;100754.59;114612;1196;103223;-80
2021/03/27 03:50:08;;;;;;;56.45;35.90;;;;;;;5.36;65.46;100748.44;114334;1196;103220;-82
2021/03/27 03:53:00;;;;;;;49.73;36.70;;;;;;;5.35;65.41;100748.44;114288;1196;103274;-83
2021/03/27 03:55:49;;;;;;;47.85;36.58;;;;;;;5.34;65.19;100742.29;114260;1196;103162;-88
2021/03/27 03:58:29;;;;;;;44.78;33.43;;;;;;;5.35;65.36;100738.75;114159;1196;103248;-82
2021/03/27 04:01:00;;;;;;;57.07;41.07;;;;;;;5.40;65.29;100738.77;114184;1195;103411;-83
2021/03/27 04:03:44;;;;;;;50.03;30.83;;;;;;;5.42;65.07;100725.55;114510;1196;103207;-82
2021/03/27 04:06:16;;;;;;;54.25;36.65;;;;;;;5.40;65.44;100729.94;114292;1196;103271;-84
2021/03/27 04:09:15;;;;;;;49.43;34.07;;;;;;;5.38;65.67;100718.52;114251;1195;103084;-82
2021/03/27 04:11:59;;;;;;;52.53;36.40;;;;;;;5.36;65.33;100711.46;114436;1196;103232;-81
2021/03/27 04:15:06;;;;;;;55.20;37.60;;;;;;;5.40;65.49;100722.91;114489;1196;103124;-84
2021/03/27 04:17:42;;;;;;;47.53;34.53;;;;;;;5.43;65.17;100732.60;114636;1199;103498;-83
2021/03/27 04:20:46;;;;;;;58.07;40.00;;;;;;;5.42;65.48;100729.06;114413;1196;103246;-83
2021/03/27 04:23:26;;;;;;;45.98;31.33;;;;;;;5.33;65.56;100732.59;114253;1196;103111;-81
2021/03/27 04:26:00;;;;;;;62.27;37.93;;;;;;;5.29;65.44;100733.48;114176;1195;104136;-83
2021/03/27 04:29:03;;;;;;;57.00;41.60;;;;;;;5.31;65.56;100742.27;114533;1196;103244;-82
2021/03/27 04:31:52;;;;;;;64.98;43.33;;;;;;;5.32;65.82;100741.39;114406;1196;103227;-82
2021/03/27 04:34:26;;;;;;;69.75;46.50;;;;;;;5.34;65.79;100747.58;114543;1196;103510;-85
2021/03/27 04:37:16;;;;;;;61.70;44.23;;;;;;;5.39;65.51;100744.92;114438;1196;103116;-82
2021/03/27 04:39:53;;;;;;;63.48;45.68;;;;;;;5.42;65.14;100752.83;114419;1196;103187;-83
2021/03/27 04:42:25;;;;;;;61.77;41.73;;;;;;;5.50;65.38;100755.48;114486;1196;103188;-82
2021/03/27 04:45:19;;;;;;;61.00;41.33;;;;;;;5.50;65.49;100751.10;114689;1196;103325;-83
2021/03/27 04:48:09;;;;;;;64.58;41.95;;;;;;;5.48;65.49;100746.70;114619;1196;103136;-82
2021/03/27 04:51:27;;;;;;;61.10;42.57;;;;;;;5.51;65.79;100738.77;114572;1195;103091;-81
2021/03/27 04:54:13;;;;;;;69.30;42.90;;;;;;;5.50;65.29;100732.61;114308;1196;103117;-82
2021/03/27 04:57:05;;;;;;;66.30;47.03;;;;;;;5.54;65.05;100730.83;114656;1196;103904;-82
2021/03/27 04:59:50;;;;;;;69.30;47.20;;;;;;;5.61;65.41;100729.06;114628;1196;103200;-84
2021/03/27 05:02:22;;;;;;;60.80;43.50;;;;;;;5.69;65.08;100719.36;114473;1196;103130;-83
2021/03/27 05:05:27;;;;;;;68.80;48.38;;;;;;;5.74;64.74;100720.23;114432;1195;103161;-86
2021/03/27 05:07:59;;;;;;;62.08;47.15;;;;;;;5.79;64.45;100742.26;114502;1196;103140;-81
2021/03/27 05:10:39;;;;;;;71.68;46.90;;;;;;;5.86;64.78;100737.84;114614;1196;103223;-83
2021/03/27 05:13:22;;;;;;;53.98;39.35;;;;;;;5.91;64.47;100729.92;114522;1196;103097;-83
2021/03/27 05:15:54;;;;;;;54.25;40.68;;;;;;;5.88;64.47;100725.52;114624;1195;103260;-81
2021/03/27 05:18:32;;;;;;;56.33;40.00;;;;;;;5.86;64.69;100720.24;114555;1196;103184;-82
2021/03/27 05:21:36;;;;;;;66.57;42.57;;;;;;;5.85;64.55;100729.05;114395;1196;103165;-84
2021/03/27 05:24:09;;;;;;;49.40;35.50;;;;;;;5.83;64.89;100717.58;114504;1195;103095;-83
2021/03/27 05:26:50;;;;;;;43.90;30.13;;;;;;;5.84;65.00;100719.35;114251;1196;103478;-83
2021/03/27 05:29:36;;;;;;;59.97;44.17;;;;;;;5.88;65.11;100708.77;114280;1196;103990;-82
2021/03/27 05:32:29;;;;;;;51.80;36.50;;;;;;;5.86;65.13;100712.31;114212;1196;103557;-78
2021/03/27 05:35:13;;;;;;;49.95;32.55;;;;;;;5.84;65.23;100706.14;114311;1196;103273;-82
2021/03/27 05:38:08;;;;;;;57.65;41.05;;;;;;;5.87;65.35;100702.61;114547;1196;103799;-82
2021/03/27 05:40:50;;;;;;;46.93;33.95;;;;;;;5.90;65.35;100704.37;114663;1195;103105;-85
2021/03/27 05:44:07;;;;;;;70.15;45.60;;;;;;;5.99;65.49;100710.53;114572;1196;103191;-82
2021/03/27 05:47:04;;;;;;;71.55;43.58;;;;;;;6.07;65.19;100723.74;114354;1196;103121;-81
2021/03/27 05:50:02;;;;;;;71.20;47.13;;;;;;;6.14;65.25;100724.61;114572;1196;103191;-83
2021/03/27 05:52:58;;;;;;;69.50;52.97;;;;;;;6.18;65.36;100721.96;114631;1196;103135;-81
2021/03/27 05:55:44;;;;;;;65.03;44.77;;;;;;;6.22;65.48;100725.45;114591;1196;103319;-81
2021/03/27 05:58:25;;;;;;;67.43;46.60;;;;;;;6.26;65.18;100713.11;114731;1196;103088;-83
2021/03/27 06:01:35;;;;;;;59.23;42.50;;;;;;;6.25;65.63;100712.24;114530;1196;103195;-82
2021/03/27 06:04:19;;;;;;;72.03;48.07;;;;;;;6.25;65.36;100712.24;114324;1196;103194;-82
2021/03/27 06:06:54;;;;;;;75.45;49.58;;;;;;;6.25;65.51;100717.53;114567;1196;103140;-82
2021/03/27 06:09:56;;;;;;;69.28;47.60;;;;;;;6.33;65.79;100714.83;114661;1196;103181;-82
2021/03/27 06:13:00;;;;;;;57.37;41.93;;;;;;;6.41;65.64;100705.13;114687;1196;103555;-82
2021/03/27 06:15:57;;;;;;;58.03;39.43;;;;;;;6.47;65.72;100705.08;114846;1196;103094;-85
2021/03/27 06:19:16;;;;;;;54.77;38.67;;;;;;;6.55;65.03;100701.53;114549;1196;103024;-82
2021/03/27 06:22:01;;;;;;;61.58;42.83;;;;;;;6.60;64.82;100700.62;114637;1196;103264;-82
2021/03/27 06:24:38;;;;;;;50.50;35.20;;;;;;;6.64;64.30;100694.42;114591;1196;103164;-81
2021/03/27 06:27:11;;;;;;;52.30;37.93;;;;;;;6.66;64.70;100694.41;114342;1196;103121;-85
2021/03/27 06:29:56;;;;;;;62.50;42.50;;;;;;;6.71;64.52;100697.04;114751;1195;103163;-81
2021/03/27 06:32:48;;;;;;;43.10;34.38;;;;;;;6.71;64.74;100689.10;114432;1196;103182;-81
2021/03/27 06:35:35;;;;;;;51.77;35.97;;;;;;;6.71;64.65;100689.97;114377;1196;103351;-83
2021/03/27 06:38:35;;;;;;;55.55;35.70;;;;;;;6.75;64.33;100688.19;114476;1196;103066;-81
2021/03/27 06:41:17;;;;;;;55.45;39.80;;;;;;;6.82;64.42;100687.25;114259;1196;103132;-83
2021/03/27 06:44:08;;;;;;;48.35;34.98;;;;;;;6.83;63.90;100689.02;114418;1196;102996;-81
2021/03/27 06:46:55;;;;;;;60.65;40.83;;;;;;;6.90;63.96;100681.91;114298;1196;103581;-81
2021/03/27 06:49:33;;;;;;;56.43;40.10;;;;;;;6.91;63.65;100681.90;114210;1196;103242;-81
2021/03/27 06:52:09;;;;;;;53.50;41.80;;;;;;;6.96;63.93;100676.59;114494;1196;103091;-81
2021/03/27 06:54:50;;;;;;;46.23;30.00;;;;;;;7.03;62.98;100680.94;114328;1196;103306;-79
2021/03/27 06:57:32;;;;;;;64.80;41.23;;;;;;;7.06;63.04;100665.02;114378;1196;103041;-84
2021/03/27 07:00:04;;;;;;;76.13;53.20;;;;;;;7.09;63.15;100675.61;114385;1195;103091;-82
2021/03/27 07:03:08;;;;;;;46.98;35.45;;;;;;;7.17;62.95;100678.17;114392;1196;103191;-81
2021/03/27 07:06:02;;;;;;;60.93;43.77;;;;;;;7.24;62.96;100679.90;114413;1196;103149;-81
2021/03/27 07:08:42;;;;;;;68.55;49.85;;;;;;;7.31;62.97;100678.94;114390;1196;103133;-81
2021/03/27 07:11:37;;;;;;;73.93;50.40;;;;;;;7.39;62.77;100678.89;114592;1196;103152;-81
2021/03/27 07:14:32;;;;;;;76.18;53.75;;;;;;;7.51;62.12;100680.55;114363;1196;103040;-83
2021/03/27 07:17:04;;;;;;;65.08;45.83;;;;;;;7.58;62.07;100670.77;114174;1196;103123;-82
2021/03/27 07:19:54;;;;;;;60.30;38.85;;;;;;;7.64;61.85;100671.59;114279;1196;104779;-81
2021/03/27 07:22:26;;;;;;;72.33;51.87;;;;;;;7.76;61.75;100673.23;114315;1196;103097;-81
2021/03/27 07:25:17;;;;;;;66.25;46.60;;;;;;;7.83;61.43;100666.96;114337;1196;103165;-81
2021/03/27 07:28:23;;;;;;;60.93;44.80;;;;;;;7.95;61.40;100665.09;114046;1196;103201;-81
2021/03/27 07:31:09;;;;;;;61.13;41.35;;;;;;;8.04;60.60;100665.84;114265;1195;103172;-85
2021/03/27 07:34:10;;;;;;;64.60;47.30;;;;;;;8.13;60.44;100666.63;114043;1196;103124;-81
2021/03/27 07:37:06;;;;;;;61.53;44.00;;;;;;;8.27;60.09;100662.04;114391;1195;103200;-84
2021/03/27 07:40:05;;;;;;;64.83;44.27;;;;;;;8.33;60.48;100659.32;114150;1196;103440;-79
2021/03/27 07:42:51;;;;;;;64.93;47.93;;;;;;;8.42;59.82;100654.78;114077;1196;103137;-81
2021/03/27 07:45:26;;;;;;;56.67;41.57;;;;;;;8.51;59.71;100655.56;114278;1196;103252;-82
2021/03/27 07:48:31;;;;;;;57.45;42.75;;;;;;;8.63;59.54;100651.86;114117;1196;103146;-81
2021/03/27 07:51:41;;;;;;;51.38;38.08;;;;;;;8.78;59.07;100658.72;114239;1196;103114;-81
2021/03/27 07:54:26;;;;;;;58.13;41.10;;;;;;;8.98;58.83;100647.82;114310;1196;103104;-82
2021/03/27 07:57:30;;;;;;;47.77;35.53;;;;;;;9.04;58.67;100645.05;114091;1196;103124;-79
2021/03/27 08:00:20;;;;;;;58.67;42.53;;;;;;;9.21;59.09;100641.25;114145;1196;103277;-81
2021/03/27 08:03:09;;;;;;;56.57;39.27;;;;;;;9.40;57.90;100643.56;114070;1196;103273;-82
2021/03/27 08:05:41;;;;;;;59.88;41.08;;;;;;;9.53;57.60;100637.16;114056;1196;103276;-82
2021/03/27 08:08:26;;;;;;;58.03;41.47;;;;;;;9.67;57.58;100642.20;114017;1196;103264;-78
2021/03/27 08:11:17;;;;;;;54.95;39.48;;;;;;;9.87;56.68;100637.36;114051;1196;103105;-80
2021/03/27 08:14:13;;;;;;;59.75;45.55;;;;;;;10.17;56.39;100636.77;114185;1196;103255;-81
2021/03/27 08:17:05;;;;;;;71.23;50.80;;;;;;;10.47;56.24;100634.41;114036;1196;103431;-83
2021/03/27 08:19:44;;;;;;;58.45;43.55;;;;;;;10.74;55.15;100627.56;114175;1196;103593;-81
2021/03/27 08:22:26;;;;;;;55.10;38.30;;;;;;;11.08;53.96;100632.10;114276;1196;103088;-81
2021/03/27 08:25:14;;;;;;;60.00;41.95;;;;;;;11.35;53.66;100621.65;114098;1196;103213;-82
2021/03/27 08:28:08;;;;;;;52.43;37.70;;;;;;;11.62;52.81;100617.39;114107;1196;103110;-82
2021/03/27 08:30:56;;;;;;;46.63;33.45;;;;;;;11.84;51.99;100617.66;113913;1196;103217;-80
2021/03/27 08:33:59;;;;;;;56.73;41.50;;;;;;;12.13;52.42;100615.98;114017;1196;103201;-82
2021/03/27 08:36:41;;;;;;;51.50;32.50;;;;;;;12.38;50.27;100617.91;113666;1196;103133;-78
2021/03/27 08:39:07;;;;;;;60.53;38.47;;;;;;;12.64;51.21;100616.25;113590;1196;103094;-82
2021/03/27 08:41:53;;;;;;;43.37;31.00;;;;;;;12.85;49.46;100617.37;113636;1196;103201;-78
2021/03/27 08:44:41;;;;;;;44.73;34.70;;;;;;;13.06;49.07;100607.73;113677;1196;103098;-82
2021/03/27 08:47:22;;;;;;;54.87;39.30;;;;;;;13.27;49.14;100599.94;113710;1196;103164;-82
2021/03/27 08:50:07;;;;;;;54.40;38.10;;;;;;;13.53;47.97;100585.69;113666;1196;103197;-82
2021/03/27 08:52:43;;;;;;;37.95;26.70;;;;;;;13.69;46.65;100584.20;113726;1196;103297;-87
2021/03/27 08:55:42;;;;;;;41.83;30.88;;;;;;;13.83;46.57;100591.70;113869;1196;103295;-82
2021/03/27 08:58:28;;;;;;;42.60;32.00;;;;;;;14.12;45.70;100583.53;113802;1196;103207;-82
2021/03/27 09:01:30;;;;;;;48.00;35.67;;;;;;;14.30;45.11;100582.83;113745;1196;103261;-85
2021/03/27 09:04:24;;;;;;;39.77;29.90;;;;;;;14.57;44.61;100581.77;113704;1196;103272;-81
2021/03/27 09:07:00;;;;;;;46.80;33.90;;;;;;;15.10;43.50;100573.39;114207;1195;103888;-81
2021/03/27 09:09:47;;;;;;;38.60;28.77;;;;;;;15.93;41.42;100574.25;114028;1196;103834;-80
2021/03/27 09:12:48;;;;;;;40.77;30.60;;;;;;;17.30;39.15;100573.94;113901;1196;103127;-80
2021/03/27 09:15:31;;;;;;;42.57;29.43;;;;;;;18.36;36.53;100559.31;113936;1196;103641;-85
2021/03/27 09:18:39;;;;;;;32.98;24.40;;;;;;;19.37;33.62;100559.78;114002;1196;103177;-88
2021/03/27 09:21:31;;;;;;;47.30;32.65;;;;;;;20.48;32.89;100551.97;113920;1196;103101;-82
2021/03/27 09:24:39;;;;;;;38.00;26.05;;;;;;;21.32;31.39;100553.57;113681;1196;103283;-81
2021/03/27 09:27:44;;;;;;;53.10;37.15;;;;;;;22.00;30.76;100543.41;113713;1196;103177;-83
2021/03/27 09:30:23;;;;;;;33.55;25.53;;;;;;;22.38;28.15;100528.94;113733;1196;103191;-81
2021/03/27 09:33:21;;;;;;;30.25;21.63;;;;;;;22.65;27.46;100536.00;113661;1198;103136;-81
2021/03/27 09:36:25;;;;;;;31.75;24.93;;;;;;;23.23;26.71;100526.27;113500;1200;103226;-80
2021/03/27 09:39:04;;;;;;;23.70;19.67;;;;;;;23.73;25.73;100526.85;113717;1195;103296;-80
2021/03/27 09:42:28;;;;;;;28.68;20.18;;;;;;;23.88;25.04;100528.35;113801;1196;103251;-82
2021/03/27 09:45:19;;;;;;;29.27;20.47;;;;;;;24.23;24.31;100526.48;113835;1196;103295;-82
2021/03/27 09:48:08;;;;;;;39.15;27.68;;;;;;;25.06;23.90;100526.91;114047;1196;103181;-81
2021/03/27 09:51:04;;;;;;;38.25;25.10;;;;;;;25.88;24.02;100517.08;113946;1196;103729;-86
2021/03/27 09:54:11;;;;;;;37.50;25.83;;;;;;;26.44;23.01;100518.43;113881;1195;103230;-87
2021/03/27 09:56:59;;;;;;;27.03;21.43;;;;;;;26.86;21.59;100501.83;113608;1196;103264;-82
2021/03/27 09:59:50;;;;;;;25.13;19.13;;;;;;;26.72;20.36;100507.72;113579;1196;103169;-79
2021/03/27 10:02:40;;;;;;;29.68;22.53;;;;;;;26.74;20.60;100504.84;113651;1195;103129;-82
2021/03/27 10:05:45;;;;;;;36.83;24.57;;;;;;;27.13;21.26;100493.91;113656;1196;103187;-85
2021/03/27 10:08:24;;;;;;;32.23;25.03;;;;;;;27.51;20.50;100492.12;113790;1196;103507;-83
2021/03/27 10:11:03;;;;;;;34.00;25.70;;;;;;;27.79;19.73;100494.91;113896;1196;103296;-81
2021/03/27 10:13:50;;;;;;;18.85;15.15;;;;;;;27.24;19.10;100498.36;113986;1196;103196;-81
2021/03/27 10:16:27;;;;;;;20.13;15.83;;;;;;;26.59;19.59;100494.33;113843;1196;103548;-80
2021/03/27 10:19:02;;;;;;;23.80;19.20;;;;;;;26.69;20.22;100488.86;113657;1196;103837;-83
2021/03/27 10:21:49;;;;;;;25.63;17.23;;;;;;;27.02;19.96;100484.85;113771;1195;103280;-82
2021/03/27 10:24:28;;;;;;;27.53;17.30;;;;;;;27.07;19.63;100489.90;113668;1196;103159;-82
2021/03/27 10:27:14;;;;;;;23.70;18.38;;;;;;;27.31;19.52;100491.27;113720;1196;103196;-79
2021/03/27 10:30:04;;;;;;;19.77;14.40;;;;;;;27.02;18.58;100484.85;113876;1196;103165;-83
2021/03/27 10:32:31;;;;;;;25.63;19.77;;;;;;;26.95;19.38;100489.19;113745;1196;104911;-80
2021/03/27 10:35:09;;;;;;;24.95;18.00;;;;;;;27.07;19.78;100481.70;113672;1196;103766;-85
2021/03/27 10:38:03;;;;;;;31.38;21.25;;;;;;;27.06;18.77;100479.97;113702;1196;103233;-84
2021/03/27 10:40:54;;;;;;;27.63;20.57;;;;;;;27.46;19.26;100467.96;113813;1196;103213;-81
2021/03/27 10:43:36;;;;;;;24.00;15.90;;;;;;;27.47;19.33;100469.69;113800;1196;103138;-81
2021/03/27 10:46:31;;;;;;;24.03;17.98;;;;;;;27.59;18.93;100459.44;113778;1196;103198;-82
2021/03/27 10:48:57;;;;;;;21.15;17.28;;;;;;;27.53;18.97;100451.81;113848;1196;103248;-82
2021/03/27 10:51:36;;;;;;;23.43;16.50;;;;;;;26.98;18.78;100453.36;113825;1196;103197;-81
2021/03/27 10:54:12;;;;;;;21.10;16.13;;;;;;;25.42;20.44;100455.70;113834;1196;103187;-80
2021/03/27 10:57:01;;;;;;;26.85;19.65;;;;;;;24.46;22.09;100451.09;113632;1196;103300;-79
2021/03/27 10:59:56;;;;;;;31.90;20.33;;;;;;;23.47;22.79;100439.20;113670;1196;103098;-82
2021/03/27 11:02:38;;;;;;;28.40;18.03;;;;;;;22.72;24.27;100444.09;113861;1196;103060;-83
2021/03/27 11:05:34;;;;;;;27.43;19.28;;;;;;;22.10;24.65;100442.39;113729;1196;103314;-83
2021/03/27 11:08:20;;;;;;;28.13;20.00;;;;;;;21.38;25.40;100436.66;113718;1196;103197;-80
2021/03/27 11:11:12;;;;;;;24.85;18.30;;;;;;;20.91;25.67;100439.98;113961;1196;103539;-81
2021/03/27 11:13:53;;;;;;;29.97;22.07;;;;;;;20.62;26.68;100424.75;113694;1200;103254;-83
2021/03/27 11:16:27;;;;;;;34.50;23.55;;;;;;;20.30;26.77;100435.02;113622;1199;103127;-83
2021/03/27 11:19:01;;;;;;;21.87;16.87;;;;;;;20.03;27.38;100446.69;113873;1195;103360;-80
2021/03/27 11:21:30;;;;;;;32.90;20.93;;;;;;;19.80;27.21;100438.20;113798;1196;103300;-80
2021/03/27 11:23:57;;;;;;;26.03;19.03;;;;;;;19.58;28.19;100441.44;113794;1196;103152;-83
2021/03/27 11:26:42;;;;;;;29.18;21.28;;;;;;;19.47;28.04;100433.13;113697;1196;103175;-85
2021/03/27 11:29:41;;;;;;;24.50;17.93;;;;;;;19.41;28.78;100426.28;113968;1196;103123;-81
2021/03/27 11:32:08;;;;;;;27.20;20.60;;;;;;;19.43;29.38;100423.48;113898;1196;103088;-80
2021/03/27 11:34:58;;;;;;;23.95;18.85;;;;;;;19.50;29.00;100427.52;113900;1195;103216;-80
2021/03/27 11:37:42;;;;;;;26.43;19.43;;;;;;;19.28;28.74;100417.22;114068;1196;103092;-83
2021/03/27 11:40:26;;;;;;;25.67;20.20;;;;;;;19.15;29.38;100420.70;115060;1196;103089;-81
2021/03/27 11:43:18;;;;;;;33.63;22.13;;;;;;;19.10;29.04;100417.41;115174;1195;103136;-83
2021/03/27 11:46:19;;;;;;;26.35;18.38;;;;;;;19.13;29.69;100414.51;115125;1196;103861;-79
2021/03/27 11:49:16;;;;;;;25.97;20.20;;;;;;;19.15;29.73;100412.59;114846;1196;103223;-80
2021/03/27 11:52:01;;;;;;;27.23;18.00;;;;;;;19.21;30.18;100398.69;114957;1196;103204;-81
2021/03/27 11:54:51;;;;;;;25.63;18.20;;;;;;;19.16;29.46;100406.20;114020;1196;103121;-80
2021/03/27 11:57:28;;;;;;;23.23;17.80;;;;;;;19.11;29.81;100394.82;114807;1194;103172;-83
2021/03/27 12:03:41;;;;;;;28.27;20.47;;;;;;;19.16;29.92;100400.81;115468;1196;103111;-79
2021/03/27 12:06:18;;;;;;;27.67;18.97;;;;;;;19.15;29.66;100385.59;114937;1196;103203;-82
2021/03/27 12:09:04;;;;;;;27.53;19.98;;;;;;;19.17;29.11;100394.45;114905;1196;103117;-82
2021/03/27 12:11:53;;;;;;;24.35;19.10;;;;;;;19.16;29.68;100395.41;114104;1196;103501;-79
2021/03/27 12:14:32;;;;;;;17.15;14.68;;;;;;;19.05;28.94;100395.22;114027;1196;103213;-80
2021/03/27 12:17:24;;;;;;;22.85;16.65;;;;;;;19.03;29.79;100384.53;114090;1195;103568;-80
2021/03/27 12:20:40;;;;;;;22.18;14.43;;;;;;;18.94;29.24;100387.80;114017;1196;103206;-81
2021/03/27 12:23:36;;;;;;;20.70;15.93;;;;;;;18.92;28.72;100389.70;113998;1194;103908;-82
2021/03/27 12:26:18;;;;;;;24.25;16.70;;;;;;;18.92;29.57;100388.85;113992;1196;103284;-79
2021/03/27 12:29:09;;;;;;;26.63;18.00;;;;;;;19.02;30.00;100392.69;113965;1196;103156;-81